Toyama, Japan
Current Conditions -  °F | °C
As of 6:30 AM on Sunday 23 Nov 2014 (Local Time) from RJNT Reporting Station
Rain Showers Rain Showers  
Wind Chill: 50°   Ceiling: 3500
Heat Index: 50°   Visibility: 1.5mi
Dew Point: 43°   Wind: 6mph
Humidity: 76%   Direction: 360°N
Pressure: 30.24"   Gusts: NA
Location:  36.7°N, 137.22°E
Report Text: RJNT 222130Z 36005KT 280V040 2500 SHRA BR FEW025 BKN035 BKN080 10/06 Q1024 RMK 2CU025 5CU035 6AC080 A3026 P/RR
Loading
Personal Weather Stations






























Interactive Weather Map New forecast layout! Learn more

10-Day Weather Forecast

Advertisements
Track Severe Weather on mobile